Time;durP1;ratioP1;P1;durP2;ratioP2;P2;SDS_P1;SDS_P2;PMS_P1;PMS_P2;Temp;Humidity;BMP_temperature;BMP_pressure;BME280_temperature;BME280_humidity;BME280_pressure;Samples;Min_cycle;Max_cycle;Signal;HPM_P1;HPM_P2
2023/04/20 00:00:47;;;;;;;14.57;6.28;;;;;;;;;;6126925;23;20143;-71
2023/04/20 00:03:13;;;;;;;7.85;6.80;;;;;;;;;;6155560;23;20022;-72
2023/04/20 00:05:39;;;;;;;9.05;6.00;;;;;;;;;;6127459;23;20024;-72
2023/04/20 00:08:05;;;;;;;7.47;5.50;;;;;;;;;;6127398;23;20017;-73
2023/04/20 00:10:31;;;;;;;11.00;5.18;;;;;;;;;;6152633;23;20021;-73
2023/04/20 00:12:58;;;;;;;9.15;5.93;;;;;;;;;;6153474;23;20092;-73
2023/04/20 00:15:24;;;;;;;10.48;5.35;;;;;;;;;;6126940;23;20093;-71
2023/04/20 00:17:51;;;;;;;13.32;5.82;;;;;;;;;;6153066;23;20014;-73
2023/04/20 00:20:18;;;;;;;13.48;6.40;;;;;;;;;;6153194;23;20048;-73
2023/04/20 00:22:44;;;;;;;8.85;5.63;;;;;;;;;;6101924;23;20034;-72
2023/04/20 00:25:10;;;;;;;8.35;6.38;;;;;;;;;;6153075;23;20013;-72
2023/04/20 00:27:36;;;;;;;8.82;5.47;;;;;;;;;;6152800;23;20438;-72
2023/04/20 00:30:02;;;;;;;9.18;5.78;;;;;;;;;;6153090;23;20020;-72
2023/04/20 00:32:30;;;;;;;8.35;6.55;;;;;;;;;;6126958;23;20335;-72
2023/04/20 00:34:56;;;;;;;14.32;6.32;;;;;;;;;;6102476;23;20021;-73
2023/04/20 00:37:24;;;;;;;8.68;5.93;;;;;;;;;;6126203;23;20026;-72
2023/04/20 00:39:54;;;;;;;10.27;7.07;;;;;;;;;;6102157;23;20021;-73
2023/04/20 00:42:19;;;;;;;15.75;6.93;;;;;;;;;;6152823;23;20427;-72
2023/04/20 00:44:45;;;;;;;13.45;5.28;;;;;;;;;;6126604;23;20048;-72
2023/04/20 00:47:12;;;;;;;12.38;6.20;;;;;;;;;;6152692;23;20060;-73
2023/04/20 00:49:38;;;;;;;16.08;6.10;;;;;;;;;;6153221;23;20009;-74
2023/04/20 00:52:04;;;;;;;15.85;6.47;;;;;;;;;;6126954;23;20024;-72
2023/04/20 00:54:30;;;;;;;28.63;9.80;;;;;;;;;;6153088;23;20013;-72
2023/04/20 00:56:56;;;;;;;14.07;7.30;;;;;;;;;;6151609;23;20009;-72
2023/04/20 00:59:22;;;;;;;10.80;6.50;;;;;;;;;;6129134;23;20405;-74
2023/04/20 01:01:49;;;;;;;26.50;6.80;;;;;;;;;;6154341;23;20013;-73
2023/04/20 01:04:15;;;;;;;7.97;6.30;;;;;;;;;;6152623;23;20025;-72
2023/04/20 01:06:41;;;;;;;13.90;6.60;;;;;;;;;;6102100;23;20010;-72
2023/04/20 01:09:09;;;;;;;8.32;6.07;;;;;;;;;;6152525;23;20017;-73
2023/04/20 01:11:35;;;;;;;13.85;6.00;;;;;;;;;;6128786;23;20029;-74
2023/04/20 01:14:01;;;;;;;10.48;5.85;;;;;;;;;;6128035;23;20013;-72
2023/04/20 01:16:30;;;;;;;9.65;5.78;;;;;;;;;;6126552;23;20010;-73
2023/04/20 01:18:57;;;;;;;6.90;5.72;;;;;;;;;;6151228;23;20013;-72
2023/04/20 01:21:23;;;;;;;9.38;6.28;;;;;;;;;;6152697;23;20013;-73
2023/04/20 01:23:49;;;;;;;7.70;5.22;;;;;;;;;;6106274;23;20369;-73
2023/04/20 01:26:16;;;;;;;10.30;6.03;;;;;;;;;;6129473;23;20061;-73
2023/04/20 01:28:42;;;;;;;8.23;5.40;;;;;;;;;;6152439;23;20117;-72
2023/04/20 01:31:08;;;;;;;9.20;5.35;;;;;;;;;;6126449;23;20016;-72
2023/04/20 01:33:35;;;;;;;8.85;5.20;;;;;;;;;;6152697;23;20018;-72
2023/04/20 01:36:02;;;;;;;11.15;5.35;;;;;;;;;;6152429;23;20068;-72
2023/04/20 01:38:31;;;;;;;11.63;6.45;;;;;;;;;;6126771;23;20009;-72
2023/04/20 01:41:00;;;;;;;14.32;6.13;;;;;;;;;;6102079;23;20044;-73
2023/04/20 01:43:26;;;;;;;10.40;6.63;;;;;;;;;;6126159;23;20025;-72
2023/04/20 01:45:52;;;;;;;7.13;4.88;;;;;;;;;;6126515;23;20010;-72
2023/04/20 01:48:18;;;;;;;13.82;6.95;;;;;;;;;;6126509;23;20017;-72
2023/04/20 01:50:44;;;;;;;9.88;5.90;;;;;;;;;;6126281;23;20024;-74
2023/04/20 01:53:12;;;;;;;14.50;5.80;;;;;;;;;;6126284;23;20020;-73
2023/04/20 01:55:38;;;;;;;10.27;5.45;;;;;;;;;;6150816;23;20013;-72
2023/04/20 01:58:04;;;;;;;7.45;5.05;;;;;;;;;;6152373;23;20021;-73
2023/04/20 02:00:30;;;;;;;9.30;5.25;;;;;;;;;;6152683;23;20020;-72
2023/04/20 02:02:58;;;;;;;10.57;5.32;;;;;;;;;;6152903;23;20021;-72
2023/04/20 02:05:25;;;;;;;10.05;5.20;;;;;;;;;;6127227;23;20025;-71
2023/04/20 02:07:51;;;;;;;7.90;5.40;;;;;;;;;;6126641;23;20463;-74
2023/04/20 02:10:17;;;;;;;5.38;4.65;;;;;;;;;;6152766;23;20126;-72
2023/04/20 02:12:44;;;;;;;7.32;5.25;;;;;;;;;;6126850;23;20048;-72
2023/04/20 02:15:10;;;;;;;5.82;4.90;;;;;;;;;;6129646;23;20088;-71
2023/04/20 02:17:56;;;;;;;8.68;5.28;;;;;;;;;;6115143;23;20053;-73
2023/04/20 02:20:23;;;;;;;7.93;4.97;;;;;;;;;;6157329;23;20363;-72
2023/04/20 02:22:49;;;;;;;10.02;5.38;;;;;;;;;;6130092;23;20303;-72
2023/04/20 02:25:15;;;;;;;8.13;5.90;;;;;;;;;;6157246;23;20431;-72
2023/04/20 02:27:44;;;;;;;7.03;6.32;;;;;;;;;;6155786;23;20020;-73
2023/04/20 02:30:11;;;;;;;7.97;6.07;;;;;;;;;;6108390;23;20085;-73
2023/04/20 02:32:38;;;;;;;7.25;6.00;;;;;;;;;;6129101;23;20013;-74
2023/04/20 02:35:04;;;;;;;6.63;5.45;;;;;;;;;;6103897;23;20021;-73
2023/04/20 02:37:32;;;;;;;6.38;5.50;;;;;;;;;;6152522;23;20043;-72
2023/04/20 02:39:59;;;;;;;7.85;5.75;;;;;;;;;;6154243;23;20041;-71
2023/04/20 02:42:29;;;;;;;10.80;6.55;;;;;;;;;;6152431;23;20050;-72
2023/04/20 02:44:57;;;;;;;11.68;7.07;;;;;;;;;;6128313;23;20016;-72
2023/04/20 02:47:23;;;;;;;14.23;6.18;;;;;;;;;;6103566;23;20024;-72
2023/04/20 02:49:51;;;;;;;10.77;5.55;;;;;;;;;;6056525;23;20143;-72
2023/04/20 02:52:18;;;;;;;9.73;5.97;;;;;;;;;;6127954;23;20017;-73
2023/04/20 02:54:44;;;;;;;8.25;6.68;;;;;;;;;;6103644;23;20174;-72
2023/04/20 02:57:11;;;;;;;11.40;6.00;;;;;;;;;;6127331;23;20096;-73
2023/04/20 02:59:38;;;;;;;19.63;7.32;;;;;;;;;;6127806;23;20022;-73
2023/04/20 03:02:09;;;;;;;8.73;6.45;;;;;;;;;;6127938;23;20013;-72
2023/04/20 03:04:38;;;;;;;18.33;8.68;;;;;;;;;;6128741;23;20013;-72
2023/04/20 03:07:17;;;;;;;12.18;6.80;;;;;;;;;;6128955;23;20037;-72
2023/04/20 03:09:44;;;;;;;10.98;6.53;;;;;;;;;;6103339;23;20052;-72
2023/04/20 03:12:18;;;;;;;12.25;7.03;;;;;;;;;;6127774;23;20075;-73
2023/04/20 03:15:03;;;;;;;7.45;6.18;;;;;;;;;;6103775;23;20021;-73
2023/04/20 03:17:45;;;;;;;9.65;6.78;;;;;;;;;;6128206;23;20413;-73
2023/04/20 03:20:12;;;;;;;13.60;6.78;;;;;;;;;;6152411;23;20394;-72
2023/04/20 03:22:38;;;;;;;11.82;6.78;;;;;;;;;;6152350;23;20025;-73
2023/04/20 03:25:07;;;;;;;13.07;7.45;;;;;;;;;;6131815;23;20545;-73
2023/04/20 03:28:06;;;;;;;8.38;7.55;;;;;;;;;;6133938;23;20107;-72
2023/04/20 03:30:32;;;;;;;11.88;7.15;;;;;;;;;;6130593;23;20084;-74
2023/04/20 03:33:14;;;;;;;15.02;7.53;;;;;;;;;;6107014;23;20020;-73
2023/04/20 03:35:41;;;;;;;13.93;7.38;;;;;;;;;;6104944;23;20009;-73
2023/04/20 03:38:08;;;;;;;9.57;7.20;;;;;;;;;;6154065;23;20540;-72
2023/04/20 03:40:35;;;;;;;12.85;7.18;;;;;;;;;;6081587;23;20054;-73
2023/04/20 03:43:01;;;;;;;9.77;7.63;;;;;;;;;;6129524;23;20369;-73
2023/04/20 03:45:27;;;;;;;12.63;7.53;;;;;;;;;;6129774;23;20458;-73
2023/04/20 03:47:53;;;;;;;8.13;5.38;;;;;;;;;;6153204;23;20096;-72
2023/04/20 03:50:20;;;;;;;13.13;6.80;;;;;;;;;;6127675;23;20466;-72
2023/04/20 03:52:48;;;;;;;23.67;8.00;;;;;;;;;;6127097;23;20024;-73
2023/04/20 03:55:14;;;;;;;12.30;8.10;;;;;;;;;;6129271;23;20017;-74
2023/04/20 03:57:45;;;;;;;9.00;7.82;;;;;;;;;;6131669;23;20009;-72
2023/04/20 04:00:13;;;;;;;19.08;7.28;;;;;;;;;;6132423;23;20045;-72
2023/04/20 04:02:45;;;;;;;8.85;6.43;;;;;;;;;;6141052;23;20056;-72
2023/04/20 04:05:12;;;;;;;12.05;6.53;;;;;;;;;;6088431;23;20010;-71
2023/04/20 04:07:38;;;;;;;20.33;8.00;;;;;;;;;;6149865;23;20020;-71
2023/04/20 04:10:05;;;;;;;14.27;6.03;;;;;;;;;;6126465;23;20013;-71
2023/04/20 04:12:32;;;;;;;15.65;7.63;;;;;;;;;;6127085;23;20104;-72
2023/04/20 04:14:58;;;;;;;16.83;7.00;;;;;;;;;;6126759;23;20020;-72
2023/04/20 04:17:30;;;;;;;14.15;7.57;;;;;;;;;;6127388;23;20382;-72
2023/04/20 04:19:56;;;;;;;8.40;6.97;;;;;;;;;;6127167;23;20013;-72
2023/04/20 04:22:23;;;;;;;19.00;8.35;;;;;;;;;;6127317;23;20026;-72
2023/04/20 04:25:10;;;;;;;18.63;8.13;;;;;;;;;;6130904;23;20060;-72
2023/04/20 04:27:36;;;;;;;15.25;7.05;;;;;;;;;;6149200;23;20453;-73
2023/04/20 04:30:03;;;;;;;14.93;7.88;;;;;;;;;;6101126;23;20360;-75
2023/04/20 04:32:33;;;;;;;12.82;8.43;;;;;;;;;;6127879;23;20029;-74
2023/04/20 04:35:00;;;;;;;12.88;8.80;;;;;;;;;;6127576;23;20019;-74
2023/04/20 04:37:27;;;;;;;16.10;8.27;;;;;;;;;;6127583;23;20124;-73
2023/04/20 04:39:57;;;;;;;9.75;8.75;;;;;;;;;;6154752;23;20006;-74
2023/04/20 04:42:30;;;;;;;17.58;9.63;;;;;;;;;;6127624;23;20083;-74
2023/04/20 04:45:01;;;;;;;24.83;8.43;;;;;;;;;;6126854;23;20071;-74
2023/04/20 04:47:35;;;;;;;9.77;7.72;;;;;;;;;;6123319;23;20009;-76
2023/04/20 04:50:05;;;;;;;14.40;8.27;;;;;;;;;;6125946;23;20013;-78
2023/04/20 04:52:32;;;;;;;17.60;8.43;;;;;;;;;;6152497;23;20357;-76
2023/04/20 04:54:58;;;;;;;14.98;7.68;;;;;;;;;;6151483;23;20017;-77
2023/04/20 04:57:25;;;;;;;11.48;7.90;;;;;;;;;;6152622;23;20479;-74
2023/04/20 04:59:51;;;;;;;13.95;8.32;;;;;;;;;;6151975;23;20014;-73
2023/04/20 05:02:17;;;;;;;16.02;8.63;;;;;;;;;;6152077;23;20357;-73
2023/04/20 05:04:43;;;;;;;13.40;7.55;;;;;;;;;;6126318;23;20017;-74
2023/04/20 05:07:09;;;;;;;13.65;7.82;;;;;;;;;;6155451;23;20018;-77
2023/04/20 05:09:36;;;;;;;12.48;6.90;;;;;;;;;;6134243;23;20032;-78
2023/04/20 05:12:02;;;;;;;14.05;8.43;;;;;;;;;;6174147;23;20030;-77
2023/04/20 05:14:29;;;;;;;18.00;8.00;;;;;;;;;;6173647;23;20020;-78
2023/04/20 05:16:55;;;;;;;12.80;7.10;;;;;;;;;;6174946;23;20024;-78
2023/04/20 05:19:21;;;;;;;28.98;8.25;;;;;;;;;;6173882;23;20005;-78
2023/04/20 05:21:47;;;;;;;12.70;7.63;;;;;;;;;;6154047;23;20466;-77
2023/04/20 05:24:13;;;;;;;15.63;8.60;;;;;;;;;;6126240;23;20438;-79
2023/04/20 05:26:39;;;;;;;17.88;7.68;;;;;;;;;;6152420;23;20100;-78
2023/04/20 05:29:05;;;;;;;13.25;7.43;;;;;;;;;;6150916;23;20040;-78
2023/04/20 05:31:32;;;;;;;9.13;7.75;;;;;;;;;;6127642;23;20465;-76
2023/04/20 05:33:58;;;;;;;16.60;7.78;;;;;;;;;;6156478;23;20020;-75
2023/04/20 05:36:25;;;;;;;17.30;8.20;;;;;;;;;;6133106;23;20021;-76
2023/04/20 05:38:51;;;;;;;13.70;7.65;;;;;;;;;;6129769;23;20041;-75
2023/04/20 05:41:17;;;;;;;11.00;6.72;;;;;;;;;;6152521;23;20044;-77
2023/04/20 05:43:43;;;;;;;19.85;7.55;;;;;;;;;;6151145;23;20025;-78
2023/04/20 05:46:09;;;;;;;8.13;6.97;;;;;;;;;;6156254;23;20015;-78
2023/04/20 05:48:35;;;;;;;10.20;8.05;;;;;;;;;;6157264;23;20017;-80
2023/04/20 05:51:01;;;;;;;14.60;6.80;;;;;;;;;;6124772;23;20017;-80
2023/04/20 05:53:28;;;;;;;18.38;7.38;;;;;;;;;;6151950;23;20330;-78
2023/04/20 05:55:54;;;;;;;12.45;7.40;;;;;;;;;;6125863;23;20014;-78
2023/04/20 05:58:20;;;;;;;15.55;7.43;;;;;;;;;;6151936;23;20482;-79
2023/04/20 06:00:46;;;;;;;16.50;10.18;;;;;;;;;;6151763;23;20072;-77
2023/04/20 06:03:13;;;;;;;15.30;7.63;;;;;;;;;;6122595;23;20021;-76
2023/04/20 06:05:39;;;;;;;12.20;7.50;;;;;;;;;;6124206;23;20014;-76
2023/04/20 06:08:05;;;;;;;9.40;6.97;;;;;;;;;;6151525;23;20537;-76
2023/04/20 06:10:32;;;;;;;15.82;7.30;;;;;;;;;;6151220;23;20549;-75
2023/04/20 06:12:59;;;;;;;11.85;6.38;;;;;;;;;;6125059;23;20024;-75
2023/04/20 06:15:24;;;;;;;19.17;7.53;;;;;;;;;;6152216;23;20021;-76
2023/04/20 06:17:51;;;;;;;12.52;8.35;;;;;;;;;;6152075;23;20021;-76
2023/04/20 06:20:18;;;;;;;13.05;6.97;;;;;;;;;;6151577;23;20009;-75
2023/04/20 06:22:45;;;;;;;20.23;7.25;;;;;;;;;;6150134;23;20048;-76
2023/04/20 06:25:10;;;;;;;11.38;7.65;;;;;;;;;;6150370;23;20453;-75
2023/04/20 06:27:37;;;;;;;11.40;7.70;;;;;;;;;;6150455;23;20024;-75
2023/04/20 06:30:03;;;;;;;12.90;7.97;;;;;;;;;;6098833;23;20191;-75
2023/04/20 06:32:30;;;;;;;9.52;7.10;;;;;;;;;;6150085;23;20357;-75
2023/04/20 06:34:56;;;;;;;13.68;7.38;;;;;;;;;;6150428;23;20014;-76
2023/04/20 06:37:23;;;;;;;12.60;6.80;;;;;;;;;;6152109;23;20020;-76
2023/04/20 06:39:53;;;;;;;14.75;6.85;;;;;;;;;;6126080;23;20104;-75
2023/04/20 06:42:19;;;;;;;;;;;;;;;;;;6152588;23;20013;-75
2023/04/20 06:44:46;;;;;;;12.05;6.13;;;;;;;;;;6152185;23;19913;-75
2023/04/20 06:47:12;;;;;;;11.30;5.78;;;;;;;;;;6126414;23;20361;-75
2023/04/20 06:49:38;;;;;;;10.25;6.20;;;;;;;;;;6126864;23;20033;-75
2023/04/20 06:52:04;;;;;;;6.03;5.47;;;;;;;;;;6102218;23;20056;-75
2023/04/20 06:54:31;;;;;;;6.93;5.80;;;;;;;;;;6154728;23;20476;-77
2023/04/20 06:56:57;;;;;;;6.70;6.00;;;;;;;;;;6151967;23;20013;-76
2023/04/20 06:59:23;;;;;;;16.92;8.40;;;;;;;;;;6152175;23;20013;-75
2023/04/20 07:01:49;;;;;;;7.22;5.20;;;;;;;;;;6152088;23;20140;-75
2023/04/20 07:04:15;;;;;;;9.30;6.15;;;;;;;;;;6154024;23;20021;-75
2023/04/20 07:06:41;;;;;;;8.35;4.40;;;;;;;;;;6154087;23;20032;-75
2023/04/20 07:09:08;;;;;;;7.20;5.05;;;;;;;;;;6153882;23;20017;-75
2023/04/20 07:11:34;;;;;;;7.90;5.10;;;;;;;;;;6154762;23;20426;-75
2023/04/20 07:14:03;;;;;;;5.80;4.78;;;;;;;;;;6154407;23;20028;-76
2023/04/20 07:16:32;;;;;;;7.53;5.40;;;;;;;;;;6154044;23;20450;-76
2023/04/20 07:18:58;;;;;;;7.70;5.40;;;;;;;;;;6081197;23;20021;-75
2023/04/20 07:21:29;;;;;;;8.32;5.40;;;;;;;;;;6080528;23;20013;-76
2023/04/20 07:23:57;;;;;;;10.65;5.32;;;;;;;;;;6153829;23;20060;-76
2023/04/20 07:26:24;;;;;;;7.75;4.97;;;;;;;;;;6104826;23;20044;-75
2023/04/20 07:28:54;;;;;;;5.93;4.70;;;;;;;;;;6129575;23;20017;-76
2023/04/20 07:31:20;;;;;;;5.47;4.32;;;;;;;;;;6155092;23;20013;-76
2023/04/20 07:33:49;;;;;;;8.05;4.60;;;;;;;;;;6128792;23;20401;-75
2023/04/20 07:36:16;;;;;;;7.13;4.43;;;;;;;;;;6164418;23;20066;-76
2023/04/20 07:38:42;;;;;;;16.63;5.18;;;;;;;;;;6165464;23;20013;-76
2023/04/20 07:41:09;;;;;;;5.47;4.68;;;;;;;;;;6165257;23;20062;-76
2023/04/20 07:43:35;;;;;;;7.03;4.30;;;;;;;;;;6157255;23;20026;-76
2023/04/20 07:46:01;;;;;;;6.80;5.00;;;;;;;;;;6152900;23;20057;-75
2023/04/20 07:48:27;;;;;;;5.70;4.10;;;;;;;;;;6154812;23;20033;-76
2023/04/20 07:50:56;;;;;;;6.63;4.03;;;;;;;;;;6154278;23;20049;-76
2023/04/20 07:53:26;;;;;;;4.53;3.72;;;;;;;;;;6105132;23;20040;-76
2023/04/20 07:55:52;;;;;;;8.15;3.90;;;;;;;;;;6103954;23;20014;-76
2023/04/20 07:58:18;;;;;;;5.18;3.90;;;;;;;;;;6128408;23;20017;-75
2023/04/20 08:00:47;;;;;;;9.20;4.38;;;;;;;;;;6155999;23;20495;-75
2023/04/20 08:03:17;;;;;;;11.85;5.20;;;;;;;;;;6129658;23;20028;-76
2023/04/20 08:05:43;;;;;;;8.02;4.47;;;;;;;;;;6128242;23;20013;-75
2023/04/20 08:08:10;;;;;;;7.10;4.32;;;;;;;;;;6127717;23;20095;-75
2023/04/20 08:10:36;;;;;;;5.65;4.47;;;;;;;;;;6104303;23;20064;-75
2023/04/20 08:13:02;;;;;;;10.95;4.30;;;;;;;;;;6154538;23;20020;-75
2023/04/20 08:15:28;;;;;;;5.10;4.57;;;;;;;;;;6127626;23;20461;-75
2023/04/20 08:17:54;;;;;;;6.32;4.45;;;;;;;;;;6153632;23;20017;-75
2023/04/20 08:20:24;;;;;;;4.63;4.32;;;;;;;;;;6153455;23;20016;-75
2023/04/20 08:22:59;;;;;;;7.60;4.70;;;;;;;;;;6152896;23;20025;-76
2023/04/20 08:25:25;;;;;;;9.55;4.60;;;;;;;;;;6126942;23;20096;-75
2023/04/20 08:27:51;;;;;;;5.47;4.35;;;;;;;;;;6152417;23;20017;-74
2023/04/20 08:30:17;;;;;;;4.95;4.22;;;;;;;;;;6127060;23;20009;-75
2023/04/20 08:32:43;;;;;;;5.55;3.53;;;;;;;;;;6127131;23;20037;-76
2023/04/20 08:35:09;;;;;;;3.95;3.45;;;;;;;;;;6126709;23;20468;-75
2023/04/20 08:37:36;;;;;;;3.72;3.42;;;;;;;;;;6153116;23;20028;-75
2023/04/20 08:40:03;;;;;;;7.82;4.22;;;;;;;;;;6153056;23;20097;-75
2023/04/20 08:42:31;;;;;;;8.57;3.95;;;;;;;;;;6127867;23;20031;-75
2023/04/20 08:44:58;;;;;;;6.63;3.40;;;;;;;;;;6152978;23;20413;-76
2023/04/20 08:47:24;;;;;;;3.05;2.83;;;;;;;;;;6154080;23;20013;-76
2023/04/20 08:49:52;;;;;;;4.45;3.80;;;;;;;;;;6078517;23;20018;-75
2023/04/20 08:52:18;;;;;;;7.68;3.50;;;;;;;;;;6152751;23;20005;-75
2023/04/20 08:54:44;;;;;;;4.75;3.42;;;;;;;;;;6078667;23;20434;-75
2023/04/20 08:57:10;;;;;;;4.10;3.45;;;;;;;;;;6102541;23;20458;-75
2023/04/20 08:59:36;;;;;;;3.80;3.50;;;;;;;;;;6152939;23;20017;-75
2023/04/20 09:02:10;;;;;;;4.35;3.85;;;;;;;;;;6152592;23;20096;-75
2023/04/20 09:04:36;;;;;;;4.57;4.10;;;;;;;;;;6155148;23;20021;-75
2023/04/20 09:07:02;;;;;;;4.40;4.00;;;;;;;;;;6126558;23;20088;-75
2023/04/20 09:09:28;;;;;;;7.90;4.00;;;;;;;;;;6152873;23;20064;-75
2023/04/20 09:12:01;;;;;;;4.28;3.95;;;;;;;;;;6150817;23;20029;-75
2023/04/20 09:14:27;;;;;;;4.03;3.70;;;;;;;;;;6126817;23;20013;-75
2023/04/20 09:16:59;;;;;;;4.68;3.60;;;;;;;;;;6152772;23;20009;-75
2023/04/20 09:19:26;;;;;;;6.25;3.92;;;;;;;;;;6103270;23;20492;-75
2023/04/20 09:21:53;;;;;;;4.07;3.78;;;;;;;;;;6154827;23;20017;-75
2023/04/20 09:24:22;;;;;;;6.85;4.47;;;;;;;;;;6128869;23;20028;-75
2023/04/20 09:26:51;;;;;;;8.38;4.53;;;;;;;;;;6152826;23;20013;-74
2023/04/20 09:29:17;;;;;;;4.13;3.83;;;;;;;;;;6101569;23;20022;-75
2023/04/20 09:31:44;;;;;;;4.25;3.85;;;;;;;;;;6102283;23;20017;-75
2023/04/20 09:34:10;;;;;;;9.75;4.43;;;;;;;;;;6152038;23;20020;-74
2023/04/20 09:36:43;;;;;;;6.72;4.13;;;;;;;;;;6152481;23;20009;-75
2023/04/20 09:39:15;;;;;;;4.78;4.22;;;;;;;;;;6126489;23;20088;-73
2023/04/20 09:41:41;;;;;;;11.40;4.15;;;;;;;;;;6127264;23;20016;-74
2023/04/20 09:44:07;;;;;;;5.97;4.13;;;;;;;;;;6153150;23;20013;-76
2023/04/20 09:46:33;;;;;;;4.20;3.80;;;;;;;;;;6154489;23;20084;-76
2023/04/20 09:48:59;;;;;;;9.13;4.20;;;;;;;;;;6153699;23;20014;-78
2023/04/20 09:51:26;;;;;;;14.77;4.22;;;;;;;;;;6153016;23;20018;-75
2023/04/20 09:53:56;;;;;;;8.20;3.95;;;;;;;;;;6102026;23;20020;-75
2023/04/20 09:56:22;;;;;;;4.60;4.13;;;;;;;;;;6126179;23;20014;-75
2023/04/20 09:58:48;;;;;;;8.80;4.07;;;;;;;;;;6126316;23;20019;-75
2023/04/20 10:01:14;;;;;;;5.05;4.35;;;;;;;;;;6126163;23;20532;-75
2023/04/20 10:03:41;;;;;;;8.95;4.03;;;;;;;;;;6126460;23;20410;-75
2023/04/20 10:06:23;;;;;;;5.28;3.90;;;;;;;;;;6125834;23;20438;-75
2023/04/20 10:08:50;;;;;;;5.18;3.70;;;;;;;;;;6153878;23;20024;-75
2023/04/20 10:11:27;;;;;;;6.00;4.00;;;;;;;;;;6152117;23;20026;-75
2023/04/20 10:13:54;;;;;;;8.23;4.00;;;;;;;;;;6126722;23;20406;-76
2023/04/20 10:16:20;;;;;;;4.65;3.70;;;;;;;;;;6152470;23;20025;-75
2023/04/20 10:19:02;;;;;;;8.13;4.15;;;;;;;;;;6152437;23;20056;-75
2023/04/20 10:21:29;;;;;;;6.68;5.03;;;;;;;;;;6126753;23;20028;-75
2023/04/20 10:23:55;;;;;;;5.38;4.18;;;;;;;;;;6126085;23;20462;-75
2023/04/20 10:26:21;;;;;;;5.45;4.28;;;;;;;;;;6151942;23;20016;-75
2023/04/20 10:28:47;;;;;;;5.72;4.20;;;;;;;;;;6151934;23;20017;-76
2023/04/20 10:31:15;;;;;;;4.50;4.10;;;;;;;;;;6151810;23;20010;-75
2023/04/20 10:33:48;;;;;;;4.53;4.13;;;;;;;;;;6126169;23;20014;-73
2023/04/20 10:36:21;;;;;;;7.00;4.00;;;;;;;;;;6152582;23;20044;-76
2023/04/20 10:38:47;;;;;;;6.03;4.30;;;;;;;;;;6154277;23;20014;-76
2023/04/20 10:41:13;;;;;;;6.10;4.07;;;;;;;;;;6154299;23;20017;-75
2023/04/20 10:43:41;;;;;;;5.97;4.50;;;;;;;;;;6128909;23;20021;-76
2023/04/20 10:46:15;;;;;;;5.45;4.28;;;;;;;;;;6154977;23;20015;-74
2023/04/20 10:48:57;;;;;;;6.88;4.38;;;;;;;;;;6154210;23;20017;-76
2023/04/20 10:51:23;;;;;;;6.15;3.65;;;;;;;;;;6153725;23;20009;-75
2023/04/20 10:53:59;;;;;;;6.70;4.93;;;;;;;;;;6154308;23;20045;-75
2023/04/20 10:56:26;;;;;;;5.32;3.80;;;;;;;;;;6154319;23;20461;-75
2023/04/20 10:58:52;;;;;;;3.88;3.63;;;;;;;;;;6128353;23;20028;-74
2023/04/20 11:01:18;;;;;;;4.35;3.83;;;;;;;;;;6156686;23;20013;-75
2023/04/20 11:03:48;;;;;;;4.15;3.85;;;;;;;;;;6161481;23;20024;-76
2023/04/20 11:06:14;;;;;;;5.10;3.88;;;;;;;;;;6167070;23;20033;-75
2023/04/20 11:08:40;;;;;;;4.88;4.03;;;;;;;;;;6143146;23;20013;-75
2023/04/20 11:11:24;;;;;;;5.75;3.95;;;;;;;;;;6160575;23;20037;-74
2023/04/20 11:13:50;;;;;;;4.57;3.63;;;;;;;;;;6128447;23;20045;-74
2023/04/20 11:16:16;;;;;;;6.07;3.85;;;;;;;;;;6153477;23;20217;-74
2023/04/20 11:18:50;;;;;;;5.07;3.55;;;;;;;;;;6153849;23;20017;-75
2023/04/20 11:21:16;;;;;;;9.85;4.07;;;;;;;;;;6128010;23;20226;-75
2023/04/20 11:23:43;;;;;;;6.68;3.40;;;;;;;;;;6153565;23;20480;-74
2023/04/20 11:26:09;;;;;;;5.45;3.97;;;;;;;;;;6153545;23;20124;-73
2023/04/20 11:28:35;;;;;;;4.43;4.03;;;;;;;;;;6127732;23;20546;-75
2023/04/20 11:31:01;;;;;;;7.20;3.90;;;;;;;;;;6154506;23;20037;-75
2023/04/20 11:33:28;;;;;;;4.93;3.60;;;;;;;;;;6153492;23;20017;-75
2023/04/20 11:35:54;;;;;;;6.65;4.13;;;;;;;;;;6153888;23;20059;-75
2023/04/20 11:38:27;;;;;;;4.00;3.70;;;;;;;;;;6153904;23;20013;-75
2023/04/20 11:40:54;;;;;;;5.18;3.92;;;;;;;;;;6153499;23;20009;-74
2023/04/20 11:43:20;;;;;;;6.45;3.90;;;;;;;;;;6153252;23;20032;-76
2023/04/20 11:45:46;;;;;;;10.55;3.72;;;;;;;;;;6132449;23;20091;-75
2023/04/20 11:48:13;;;;;;;4.72;4.22;;;;;;;;;;6144993;23;20017;-76
2023/04/20 11:50:39;;;;;;;4.32;4.00;;;;;;;;;;6115832;23;20096;-76
2023/04/20 11:53:06;;;;;;;6.80;4.97;;;;;;;;;;6164178;23;20499;-75
2023/04/20 11:55:32;;;;;;;4.45;4.05;;;;;;;;;;6165423;23;20408;-75
2023/04/20 11:57:58;;;;;;;5.80;3.88;;;;;;;;;;6165688;23;20013;-76
2023/04/20 12:00:24;;;;;;;11.10;4.35;;;;;;;;;;6129570;23;20334;-73
2023/04/20 12:02:50;;;;;;;3.92;3.63;;;;;;;;;;6153371;23;20026;-73
2023/04/20 12:05:16;;;;;;;7.90;4.60;;;;;;;;;;6153094;23;20088;-73
2023/04/20 12:07:42;;;;;;;10.10;4.35;;;;;;;;;;6153377;23;20021;-75
2023/04/20 12:10:09;;;;;;;15.05;4.80;;;;;;;;;;6151507;23;20021;-73
2023/04/20 12:12:35;;;;;;;7.75;3.75;;;;;;;;;;6151518;23;20021;-74
2023/04/20 12:15:01;;;;;;;5.45;4.93;;;;;;;;;;6150091;23;20013;-74
2023/04/20 12:17:29;;;;;;;9.60;4.60;;;;;;;;;;6126292;23;20477;-74
2023/04/20 12:19:56;;;;;;;6.57;3.50;;;;;;;;;;6150164;23;20025;-74
2023/04/20 12:22:22;;;;;;;4.65;4.07;;;;;;;;;;6150242;23;20014;-74
2023/04/20 12:24:48;;;;;;;8.32;4.70;;;;;;;;;;6123847;23;20073;-73
2023/04/20 12:27:15;;;;;;;6.90;4.18;;;;;;;;;;6123920;23;20462;-74
2023/04/20 12:29:41;;;;;;;4.80;4.40;;;;;;;;;;6150114;23;20013;-73
2023/04/20 12:32:07;;;;;;;4.78;4.28;;;;;;;;;;6150304;23;20461;-73
2023/04/20 12:34:33;;;;;;;6.63;4.32;;;;;;;;;;6150273;23;20461;-73
2023/04/20 12:36:59;;;;;;;7.20;3.85;;;;;;;;;;6149934;23;20139;-72
2023/04/20 12:39:25;;;;;;;4.68;4.25;;;;;;;;;;6149127;23;20413;-73
2023/04/20 12:41:51;;;;;;;7.32;4.22;;;;;;;;;;6124118;23;20017;-73
2023/04/20 12:44:17;;;;;;;4.38;3.97;;;;;;;;;;6149366;23;20095;-73
2023/04/20 12:46:44;;;;;;;5.28;4.03;;;;;;;;;;6149757;23;20505;-73
2023/04/20 12:49:10;;;;;;;5.05;4.00;;;;;;;;;;6123242;23;20017;-73
2023/04/20 12:51:36;;;;;;;4.78;4.38;;;;;;;;;;6150444;23;20017;-72
2023/04/20 12:54:02;;;;;;;4.43;4.03;;;;;;;;;;6151024;23;20092;-72
2023/04/20 12:56:28;;;;;;;4.32;4.03;;;;;;;;;;6149656;23;20319;-72
2023/04/20 12:58:54;;;;;;;5.80;4.07;;;;;;;;;;6149441;23;20017;-72
2023/04/20 13:01:21;;;;;;;4.93;3.70;;;;;;;;;;6107070;23;20036;-72
2023/04/20 13:03:49;;;;;;;4.50;4.10;;;;;;;;;;6157527;23;20022;-72
2023/04/20 13:06:15;;;;;;;4.47;4.07;;;;;;;;;;6156393;23;20013;-71
2023/04/20 13:08:41;;;;;;;4.05;3.75;;;;;;;;;;6158802;23;20013;-72
2023/04/20 13:11:10;;;;;;;6.72;3.88;;;;;;;;;;6130733;23;20049;-72
2023/04/20 13:13:37;;;;;;;6.95;3.95;;;;;;;;;;6154590;23;20088;-73
2023/04/20 13:16:03;;;;;;;5.20;4.20;;;;;;;;;;6150476;23;20014;-72
2023/04/20 13:18:29;;;;;;;6.20;3.90;;;;;;;;;;6149612;23;20019;-71
2023/04/20 13:20:55;;;;;;;4.05;3.63;;;;;;;;;;6123963;23;20215;-72
2023/04/20 13:23:21;;;;;;;4.70;3.38;;;;;;;;;;6150166;23;20481;-73
2023/04/20 13:25:47;;;;;;;4.10;3.80;;;;;;;;;;6124386;23;20020;-72
2023/04/20 13:28:13;;;;;;;4.22;3.92;;;;;;;;;;6122707;23;20017;-72
2023/04/20 13:30:39;;;;;;;6.97;4.65;;;;;;;;;;6149667;23;20020;-72
2023/04/20 13:33:05;;;;;;;4.97;4.00;;;;;;;;;;6149243;23;20017;-73
2023/04/20 13:35:32;;;;;;;4.93;4.38;;;;;;;;;;6150182;23;20020;-73
2023/04/20 13:37:57;;;;;;;4.68;4.07;;;;;;;;;;6123369;23;20485;-72
2023/04/20 13:40:24;;;;;;;5.53;5.05;;;;;;;;;;6121725;23;20013;-73
2023/04/20 13:42:50;;;;;;;4.28;3.88;;;;;;;;;;6150888;23;20113;-73
2023/04/20 13:45:16;;;;;;;5.47;4.40;;;;;;;;;;6151253;23;20454;-72
2023/04/20 13:47:43;;;;;;;11.48;4.47;;;;;;;;;;6123954;23;20092;-73
2023/04/20 13:50:09;;;;;;;13.07;4.65;;;;;;;;;;6123921;23;20013;-72
2023/04/20 13:52:35;;;;;;;5.60;3.88;;;;;;;;;;6123644;23;20025;-72
2023/04/20 13:55:01;;;;;;;7.03;3.92;;;;;;;;;;6148995;23;20014;-72
2023/04/20 13:57:30;;;;;;;7.57;3.97;;;;;;;;;;6148638;23;20021;-72
2023/04/20 13:59:57;;;;;;;6.72;3.90;;;;;;;;;;6124641;23;20458;-73
2023/04/20 14:02:23;;;;;;;10.52;3.63;;;;;;;;;;6151665;23;20024;-73
2023/04/20 14:04:50;;;;;;;7.55;4.10;;;;;;;;;;6150913;23;20041;-74
2023/04/20 14:07:15;;;;;;;6.55;4.13;;;;;;;;;;6149649;23;20025;-74
2023/04/20 14:09:45;;;;;;;8.88;4.00;;;;;;;;;;6148976;23;20079;-75
2023/04/20 14:12:11;;;;;;;6.18;3.40;;;;;;;;;;6100524;23;20087;-74
2023/04/20 14:14:37;;;;;;;4.82;4.10;;;;;;;;;;6101471;23;20366;-75
2023/04/20 14:17:03;;;;;;;6.68;3.97;;;;;;;;;;6152403;23;20017;-75
2023/04/20 14:19:30;;;;;;;5.80;4.40;;;;;;;;;;6150587;23;20062;-74
2023/04/20 14:21:57;;;;;;;4.85;4.25;;;;;;;;;;6151388;23;20039;-74
2023/04/20 14:24:23;;;;;;;4.47;4.18;;;;;;;;;;6150538;23;20017;-74
2023/04/20 14:26:52;;;;;;;14.23;4.15;;;;;;;;;;6152663;23;20037;-75
2023/04/20 14:29:18;;;;;;;10.15;4.18;;;;;;;;;;6156566;23;20033;-74
2023/04/20 14:31:44;;;;;;;11.60;4.05;;;;;;;;;;6160981;23;20362;-74
2023/04/20 14:34:12;;;;;;;6.95;4.80;;;;;;;;;;6161667;23;20381;-74
2023/04/20 14:36:37;;;;;;;11.10;5.25;;;;;;;;;;6152560;23;20088;-75
2023/04/20 14:39:04;;;;;;;7.95;4.35;;;;;;;;;;6151473;23;20056;-74